createdAt,value
2018-03-19T00:01:09.011Z,22.75
2018-03-19T00:03:37.267Z,20.35
2018-03-19T00:06:04.777Z,17.42
2018-03-19T00:08:32.275Z,20.17
2018-03-19T00:10:59.812Z,18.00
2018-03-19T00:13:27.307Z,24.45
2018-03-19T00:15:54.833Z,22.10
2018-03-19T00:18:22.377Z,23.05
2018-03-19T00:20:49.904Z,20.50
2018-03-19T00:23:18.212Z,24.10
2018-03-19T00:25:45.718Z,25.75
2018-03-19T00:28:14.022Z,20.00
2018-03-19T00:30:41.543Z,24.92
2018-03-19T00:33:09.065Z,23.05
2018-03-19T00:35:36.592Z,21.92
2018-03-19T00:38:04.090Z,23.12
2018-03-19T00:40:31.595Z,25.95
2018-03-19T00:42:59.117Z,19.62
2018-03-19T00:45:26.635Z,22.67
2018-03-19T00:47:54.143Z,21.35
2018-03-19T00:50:21.664Z,25.55
2018-03-19T00:52:49.232Z,25.23
2018-03-19T00:55:16.750Z,20.90
2018-03-19T00:57:44.268Z,23.20
2018-03-19T01:00:11.797Z,21.50
2018-03-19T01:02:39.298Z,20.98
2018-03-19T01:05:06.838Z,20.80
2018-03-19T01:07:34.342Z,24.08
2018-03-19T01:10:01.848Z,30.25
2018-03-19T01:12:29.363Z,25.35
2018-03-19T01:14:57.647Z,23.98
2018-03-19T01:17:25.173Z,22.83
2018-03-19T01:19:52.679Z,21.73
2018-03-19T01:22:20.218Z,21.42
2018-03-19T01:24:48.483Z,23.60
2018-03-19T01:27:16.797Z,23.27
2018-03-19T01:29:44.301Z,24.48
2018-03-19T01:32:11.823Z,22.20
2018-03-19T01:34:39.332Z,22.92
2018-03-19T01:37:07.642Z,21.10
2018-03-19T01:39:35.175Z,24.00
2018-03-19T01:42:03.463Z,19.98
2018-03-19T01:44:31.003Z,28.73
2018-03-19T01:46:59.299Z,21.67
2018-03-19T01:49:26.823Z,20.40
2018-03-19T01:51:54.349Z,19.92
2018-03-19T01:54:21.854Z,23.75
2018-03-19T01:56:50.133Z,24.73
2018-03-19T01:59:18.414Z,26.27
2018-03-19T02:01:46.695Z,22.00
2018-03-19T02:04:14.984Z,25.17
2018-03-19T02:06:42.522Z,20.62
2018-03-19T02:09:10.795Z,25.35
2018-03-19T02:11:39.075Z,25.58
2018-03-19T02:14:07.367Z,18.85
2018-03-19T02:16:34.871Z,21.85
2018-03-19T02:19:02.427Z,20.67
2018-03-19T02:21:29.948Z,20.37
2018-03-19T02:23:57.488Z,20.90
2018-03-19T02:26:25.764Z,22.27
2018-03-19T02:28:54.056Z,21.00
2018-03-19T02:31:21.597Z,20.73
2018-03-19T02:33:49.905Z,22.92
2018-03-19T02:36:17.440Z,23.52
2018-03-19T02:38:45.705Z,22.75
2018-03-19T02:41:14.010Z,20.23
2018-03-19T02:43:41.572Z,21.50
2018-03-19T02:46:09.081Z,21.30
2018-03-19T02:48:36.632Z,22.67
2018-03-19T02:51:04.172Z,20.45
2018-03-19T02:53:31.673Z,24.58
2018-03-19T02:55:59.988Z,22.58
2018-03-19T02:58:27.502Z,18.90
2018-03-19T03:00:55.013Z,24.25
2018-03-19T03:03:22.552Z,26.48
2018-03-19T03:05:50.062Z,30.33
2018-03-19T03:08:17.584Z,24.10
2018-03-19T03:10:45.118Z,26.83
2018-03-19T03:13:13.374Z,21.12
2018-03-19T03:15:41.642Z,22.77
2018-03-19T03:18:09.195Z,24.10
2018-03-19T03:20:36.695Z,22.40
2018-03-19T03:23:05.004Z,27.37
2018-03-19T03:25:32.539Z,21.98
2018-03-19T03:28:00.050Z,20.45
2018-03-19T03:30:27.587Z,22.50
2018-03-19T03:32:55.107Z,17.50
2018-03-19T03:35:22.633Z,23.40
2018-03-19T03:37:50.192Z,19.10
2018-03-19T03:40:17.703Z,24.05
2018-03-19T03:42:45.199Z,23.67
2018-03-19T03:45:12.750Z,20.75
2018-03-19T03:47:40.260Z,18.65
2018-03-19T03:50:07.804Z,19.58
2018-03-19T03:52:36.091Z,24.45
2018-03-19T03:55:04.358Z,35.33
2018-03-19T03:57:32.659Z,21.40
2018-03-19T04:00:00.203Z,28.42
2018-03-19T04:02:27.712Z,22.70
2018-03-19T04:04:55.250Z,30.83
2018-03-19T04:07:22.765Z,25.70
2018-03-19T04:09:51.042Z,21.70
2018-03-19T04:12:19.343Z,26.27
2018-03-19T04:14:46.864Z,25.23
2018-03-19T04:17:14.393Z,22.23
2018-03-19T04:19:41.889Z,21.08
2018-03-19T04:22:10.178Z,23.45
2018-03-19T04:24:38.447Z,22.90
2018-03-19T04:27:06.727Z,23.85
2018-03-19T04:29:35.051Z,20.48
2018-03-19T04:32:02.552Z,26.27
2018-03-19T04:34:30.875Z,20.62
2018-03-19T04:36:58.374Z,23.38
2018-03-19T04:39:25.921Z,23.70
2018-03-19T04:41:53.440Z,24.00
2018-03-19T04:44:20.958Z,29.70
2018-03-19T04:46:48.496Z,24.83
2018-03-19T04:49:16.028Z,22.52
2018-03-19T04:51:44.330Z,23.23
2018-03-19T04:54:11.830Z,24.17
2018-03-19T04:56:40.130Z,22.77
2018-03-19T04:59:07.659Z,25.08
2018-03-19T05:01:35.957Z,22.30
2018-03-19T05:04:03.484Z,25.77
2018-03-19T05:06:31.788Z,24.45
2018-03-19T05:08:59.286Z,28.77
2018-03-19T05:11:26.826Z,24.58
2018-03-19T05:13:54.364Z,21.95
2018-03-19T05:16:21.901Z,30.05
2018-03-19T05:18:50.164Z,31.50
2018-03-19T05:21:17.683Z,23.17
2018-03-19T05:23:45.224Z,23.83
2018-03-19T05:26:12.737Z,24.65
2018-03-19T05:28:40.246Z,19.80
2018-03-19T05:31:07.792Z,24.10
2018-03-19T05:33:35.304Z,21.15
2018-03-19T05:36:02.823Z,21.80
2018-03-19T05:38:30.356Z,24.92
2018-03-19T05:40:57.855Z,23.02
2018-03-19T05:43:25.391Z,21.98
2018-03-19T05:45:52.925Z,25.70
2018-03-19T05:48:21.214Z,27.10
2018-03-19T05:50:48.735Z,26.42
2018-03-19T05:53:16.250Z,24.85
2018-03-19T05:55:43.754Z,22.75
2018-03-19T05:58:11.313Z,29.60
2018-03-19T06:00:38.863Z,32.60
2018-03-19T06:03:06.361Z,21.90
2018-03-19T06:05:34.653Z,21.30
2018-03-19T06:08:02.158Z,25.25
2018-03-19T06:10:29.766Z,24.55
2018-03-19T06:12:57.243Z,25.75
2018-03-19T06:15:24.755Z,24.83
2018-03-19T06:17:52.310Z,24.20
2018-03-19T06:20:19.839Z,33.08
2018-03-19T06:22:47.335Z,28.33
2018-03-19T06:25:15.658Z,24.25
2018-03-19T06:27:43.171Z,27.02
2018-03-19T06:30:11.485Z,23.48
2018-03-19T06:32:39.107Z,25.10
2018-03-19T06:35:07.379Z,28.67
2018-03-19T06:37:35.654Z,34.97
2018-03-19T06:40:03.945Z,22.02
2018-03-19T06:42:32.245Z,27.30
2018-03-19T06:44:59.768Z,23.65
2018-03-19T06:47:28.075Z,24.08
2018-03-19T06:49:55.595Z,22.27
2018-03-19T06:52:23.127Z,19.77
2018-03-19T06:54:50.668Z,20.62
2018-03-19T06:57:18.177Z,22.80
2018-03-19T06:59:46.471Z,23.08
2018-03-19T07:02:14.011Z,23.50
2018-03-19T07:04:41.552Z,24.67
2018-03-19T07:07:09.080Z,27.70
2018-03-19T07:09:36.584Z,31.85
2018-03-19T07:12:04.100Z,20.77
2018-03-19T07:14:31.627Z,24.50
2018-03-19T07:16:59.174Z,25.17
2018-03-19T07:19:27.477Z,24.50
2018-03-19T07:21:55.030Z,28.38
2018-03-19T07:24:22.530Z,22.02
2018-03-19T07:26:50.059Z,24.42
2018-03-19T07:29:17.590Z,28.42
2018-03-19T07:31:45.904Z,26.17
2018-03-19T07:34:13.403Z,26.92
2018-03-19T07:36:40.940Z,20.40
2018-03-19T07:39:08.455Z,21.73
2018-03-19T07:41:35.960Z,22.87
2018-03-19T07:44:03.530Z,30.70
2018-03-19T07:46:31.007Z,25.83
2018-03-19T07:48:59.334Z,24.05
2018-03-19T07:51:26.840Z,26.98
2018-03-19T07:53:55.113Z,25.88
2018-03-19T07:56:22.674Z,26.25
2018-03-19T07:58:50.970Z,25.02
2018-03-19T08:01:19.275Z,28.73
2018-03-19T08:03:46.805Z,26.95
2018-03-19T08:06:15.104Z,27.58
2018-03-19T08:08:42.689Z,26.08
2018-03-19T08:11:10.191Z,27.33
2018-03-19T08:13:38.475Z,26.50
2018-03-19T08:16:06.742Z,21.95
2018-03-19T08:18:35.080Z,27.15
2018-03-19T08:21:02.610Z,24.10
2018-03-19T08:23:30.125Z,23.70
2018-03-19T08:25:57.688Z,27.40
2018-03-19T08:28:25.182Z,25.20
2018-03-19T08:30:52.694Z,24.05
2018-03-19T08:33:20.243Z,27.15
2018-03-19T08:35:47.794Z,23.48
2018-03-19T08:38:15.301Z,22.87
2018-03-19T08:40:42.861Z,27.13
2018-03-19T08:43:11.140Z,25.90
2018-03-19T08:45:38.640Z,22.90
2018-03-19T08:48:06.168Z,23.38
2018-03-19T08:50:33.711Z,27.20
2018-03-19T08:53:01.199Z,27.48
2018-03-19T08:55:28.736Z,30.92
2018-03-19T08:57:56.252Z,28.50
2018-03-19T09:00:23.751Z,25.80
2018-03-19T09:02:51.273Z,30.00
2018-03-19T09:05:18.789Z,31.02
2018-03-19T09:07:46.315Z,27.30
2018-03-19T09:10:14.590Z,28.20
2018-03-19T09:12:42.882Z,30.20
2018-03-19T09:15:10.429Z,32.38
2018-03-19T09:17:38.715Z,26.67
2018-03-19T09:20:06.267Z,27.02
2018-03-19T09:22:34.527Z,26.98
2018-03-19T09:25:02.784Z,29.95
2018-03-19T09:27:30.340Z,27.02
2018-03-19T09:29:58.209Z,31.37
2018-03-19T09:32:25.738Z,26.20
2018-03-19T09:34:53.262Z,30.08
2018-03-19T09:37:20.781Z,32.17
2018-03-19T09:39:48.299Z,27.15
2018-03-19T09:42:15.841Z,30.70
2018-03-19T09:44:43.355Z,27.48
2018-03-19T09:47:10.908Z,33.88
2018-03-19T09:49:38.412Z,23.40
2018-03-19T09:52:05.929Z,32.10
2018-03-19T09:54:33.451Z,28.20
2018-03-19T09:57:00.967Z,26.80
2018-03-19T09:59:28.450Z,29.50
2018-03-19T10:01:55.994Z,29.05
2018-03-19T10:04:24.279Z,27.25
2018-03-19T10:06:52.584Z,26.05
2018-03-19T10:09:20.874Z,27.42
2018-03-19T10:11:48.435Z,31.45
2018-03-19T10:14:15.961Z,30.42
2018-03-19T10:16:44.116Z,29.98
2018-03-19T10:19:13.490Z,30.42
2018-03-19T10:21:41.057Z,31.27
2018-03-19T10:24:08.548Z,38.13
2018-03-19T10:26:36.054Z,30.48
2018-03-19T10:29:03.593Z,34.00
2018-03-19T10:31:31.092Z,25.83
2018-03-19T10:33:58.637Z,31.23
2018-03-19T10:36:28.131Z,36.15
2018-03-19T10:38:55.678Z,31.00
2018-03-19T10:41:23.392Z,29.80
2018-03-19T10:43:50.951Z,28.02
2018-03-19T10:46:19.239Z,27.33
2018-03-19T10:48:47.546Z,32.53
2018-03-19T10:51:15.097Z,30.85
2018-03-19T10:53:42.670Z,31.27
2018-03-19T10:56:10.177Z,28.60
2018-03-19T10:58:43.456Z,24.67
2018-03-19T11:01:12.875Z,30.40
2018-03-19T11:03:40.345Z,30.20
2018-03-19T11:06:14.239Z,31.85
2018-03-19T11:08:48.315Z,29.67
2018-03-19T11:11:15.849Z,30.05
2018-03-19T11:13:43.362Z,28.20
2018-03-19T11:16:10.867Z,36.05
2018-03-19T11:18:38.395Z,31.87
2018-03-19T11:21:05.900Z,30.70
2018-03-19T11:23:33.419Z,32.92
2018-03-19T11:26:01.707Z,30.25
2018-03-19T11:28:29.319Z,38.20
2018-03-19T11:30:56.807Z,30.40
2018-03-19T11:33:25.114Z,26.10
2018-03-19T11:35:52.656Z,30.23
2018-03-19T11:38:20.232Z,26.73
2018-03-19T11:40:47.814Z,30.25
2018-03-19T11:43:15.358Z,31.45
2018-03-19T11:45:42.870Z,32.28
2018-03-19T11:48:11.202Z,29.65
2018-03-19T11:50:38.828Z,32.05
2018-03-19T11:53:06.370Z,32.53
2018-03-19T11:55:34.654Z,31.08
2018-03-19T11:58:02.963Z,31.12
2018-03-19T12:00:31.234Z,29.00
2018-03-19T12:02:58.769Z,31.55
2018-03-19T12:05:27.088Z,26.75
2018-03-19T12:07:54.632Z,30.45
2018-03-19T12:10:22.152Z,29.50
2018-03-19T12:12:50.429Z,25.58
2018-03-19T12:15:18.747Z,33.85
2018-03-19T12:17:46.252Z,28.77
2018-03-19T12:20:13.772Z,28.12
2018-03-19T12:22:41.558Z,29.77
2018-03-19T12:25:09.089Z,32.03
2018-03-19T12:27:36.675Z,36.13
2018-03-19T12:30:04.206Z,25.27
2018-03-19T12:32:32.490Z,33.20
2018-03-19T12:35:00.019Z,32.70
2018-03-19T12:37:27.608Z,34.28
2018-03-19T12:39:55.136Z,28.85
2018-03-19T12:42:23.486Z,30.25
2018-03-19T12:44:51.031Z,31.50
2018-03-19T12:47:18.531Z,31.45
2018-03-19T12:49:46.076Z,28.38
2018-03-19T12:52:14.418Z,27.75
2018-03-19T12:54:41.911Z,33.60
2018-03-19T12:57:10.216Z,28.38
2018-03-19T12:59:37.770Z,27.25
2018-03-19T13:02:05.284Z,31.50
2018-03-19T13:04:32.835Z,29.42
2018-03-19T13:07:00.377Z,30.12
2018-03-19T13:09:27.894Z,31.58
2018-03-19T13:11:55.554Z,32.50
2018-03-19T13:14:23.850Z,32.47
2018-03-19T13:16:51.346Z,31.37
2018-03-19T13:19:18.871Z,31.15
2018-03-19T13:21:46.553Z,27.85
2018-03-19T13:24:14.115Z,28.65
2018-03-19T13:26:41.654Z,29.35
2018-03-19T13:29:09.161Z,33.45
2018-03-19T13:31:36.672Z,26.10
2018-03-19T13:34:04.220Z,29.92
2018-03-19T13:36:31.758Z,29.25
2018-03-19T13:39:00.066Z,30.45
2018-03-19T13:41:27.576Z,28.10
2018-03-19T13:43:55.104Z,28.95
2018-03-19T13:46:22.970Z,28.42
2018-03-19T13:48:50.619Z,27.45
2018-03-19T13:51:18.159Z,29.23
2018-03-19T13:53:45.663Z,33.50
2018-03-19T13:56:13.225Z,34.03
2018-03-19T13:58:40.743Z,33.72
2018-03-19T14:01:08.243Z,32.92
2018-03-19T14:03:35.776Z,31.25
2018-03-19T14:06:03.269Z,28.98
2018-03-19T14:08:30.786Z,28.67
2018-03-19T14:10:58.325Z,29.35
2018-03-19T14:13:25.897Z,30.80
2018-03-19T14:15:54.138Z,34.30
2018-03-19T14:18:22.422Z,29.52
2018-03-19T14:20:50.734Z,30.75
2018-03-19T14:23:18.228Z,31.50
2018-03-19T14:25:45.798Z,29.52
2018-03-19T14:28:13.468Z,29.00
2018-03-19T14:30:40.897Z,32.00
2018-03-19T14:33:08.419Z,28.20
2018-03-19T14:35:35.953Z,27.75
2018-03-19T14:38:03.500Z,29.55
2018-03-19T14:40:31.771Z,27.48
2018-03-19T14:42:59.300Z,26.23
2018-03-19T14:45:26.818Z,29.12
2018-03-19T14:47:54.328Z,29.00
2018-03-19T14:50:21.866Z,28.90
2018-03-19T14:52:49.383Z,31.87
2018-03-19T14:55:17.695Z,27.70
2018-03-19T14:57:45.221Z,29.60
2018-03-19T15:00:12.761Z,32.92
2018-03-19T15:02:41.062Z,33.65
2018-03-19T15:05:08.566Z,33.05
2018-03-19T15:07:36.115Z,31.08
2018-03-19T15:10:03.608Z,31.00
2018-03-19T15:12:31.928Z,34.00
2018-03-19T15:14:59.434Z,32.03
2018-03-19T15:17:26.984Z,25.85
2018-03-19T15:19:54.498Z,35.58
2018-03-19T15:22:22.012Z,30.55
2018-03-19T15:24:49.579Z,28.60
2018-03-19T15:27:17.154Z,31.95
2018-03-19T15:29:45.480Z,32.00
2018-03-19T15:32:13.005Z,28.55
2018-03-19T15:34:40.580Z,31.73
2018-03-19T15:37:08.107Z,27.70
2018-03-19T15:39:35.652Z,31.05
2018-03-19T15:42:03.964Z,27.15
2018-03-19T15:44:31.516Z,28.38
2018-03-19T15:46:59.066Z,27.52
2018-03-19T15:49:27.380Z,28.50
2018-03-19T15:51:54.898Z,30.58
2018-03-19T15:54:22.420Z,29.35
2018-03-19T15:56:49.970Z,29.05
2018-03-19T15:59:17.659Z,29.85
2018-03-19T16:01:45.182Z,30.12
2018-03-19T16:04:12.691Z,31.30
2018-03-19T16:06:40.232Z,25.40
2018-03-19T16:09:08.348Z,34.90
2018-03-19T16:11:35.931Z,36.30
2018-03-19T16:14:03.515Z,30.83
2018-03-19T16:16:31.064Z,28.80
2018-03-19T16:18:59.069Z,30.35
2018-03-19T16:21:29.059Z,28.33
2018-03-19T16:23:57.124Z,33.53
2018-03-19T16:26:24.707Z,26.85
2018-03-19T16:28:52.992Z,29.52
2018-03-19T16:31:21.307Z,29.48
2018-03-19T16:33:48.846Z,24.75
2018-03-19T16:36:16.366Z,30.50
2018-03-19T16:38:43.905Z,30.15
2018-03-19T16:41:11.404Z,26.55
2018-03-19T16:43:39.668Z,26.35
2018-03-19T16:46:07.240Z,31.65
2018-03-19T16:48:35.509Z,27.98
2018-03-19T16:51:03.087Z,27.60
2018-03-19T16:53:31.384Z,26.20
2018-03-19T16:55:58.932Z,23.50
2018-03-19T16:58:26.447Z,29.77
2018-03-19T17:00:53.998Z,27.90
2018-03-19T17:03:21.539Z,24.33
2018-03-19T17:05:49.844Z,34.00
2018-03-19T17:08:17.357Z,30.67
2018-03-19T17:10:44.893Z,32.28
2018-03-19T17:13:13.208Z,21.45
2018-03-19T17:15:40.746Z,30.27
2018-03-19T17:18:08.281Z,24.87
2018-03-19T17:20:36.543Z,25.15
2018-03-19T17:23:04.071Z,25.70
2018-03-19T17:25:31.597Z,24.50
2018-03-19T17:27:59.140Z,25.02
2018-03-19T17:30:27.445Z,24.33
2018-03-19T17:32:54.966Z,25.40
2018-03-19T17:35:23.255Z,34.10
2018-03-19T17:37:51.538Z,27.73
2018-03-19T17:40:19.066Z,24.85
2018-03-19T17:42:46.586Z,26.65
2018-03-19T17:45:14.104Z,26.77
2018-03-19T17:47:42.396Z,23.30
2018-03-19T17:50:09.931Z,26.85
2018-03-19T17:52:38.318Z,24.23
2018-03-19T17:55:06.614Z,27.98
2018-03-19T17:57:34.109Z,22.35
2018-03-19T18:00:01.686Z,28.35
2018-03-19T18:02:29.178Z,29.02
2018-03-19T18:04:56.673Z,28.35
2018-03-19T18:07:24.204Z,26.52
2018-03-19T18:09:51.944Z,27.17
2018-03-19T18:12:19.628Z,26.75
2018-03-19T18:14:47.176Z,25.48
2018-03-19T18:17:15.435Z,33.15
2018-03-19T18:19:43.751Z,27.98
2018-03-19T18:22:11.497Z,25.37
2018-03-19T18:24:39.095Z,27.80
2018-03-19T18:27:07.493Z,31.98
2018-03-19T18:29:35.466Z,29.95
2018-03-19T18:32:03.073Z,28.05
2018-03-19T18:34:30.607Z,24.15
2018-03-19T18:36:58.980Z,26.25
2018-03-19T18:39:27.713Z,29.10
2018-03-19T18:41:55.477Z,29.10
2018-03-19T18:44:23.821Z,28.85
2018-03-19T18:46:52.135Z,31.08
2018-03-19T18:49:20.515Z,29.60
2018-03-19T18:51:48.770Z,32.85
2018-03-19T18:54:16.304Z,32.85
2018-03-19T18:56:44.611Z,32.00
2018-03-19T18:59:12.165Z,30.58
2018-03-19T19:01:40.228Z,29.87
2018-03-19T19:04:08.221Z,29.73
2018-03-19T19:06:35.997Z,30.25
2018-03-19T19:09:03.615Z,32.20
2018-03-19T19:11:31.969Z,30.27
2018-03-19T19:13:59.717Z,28.65
2018-03-19T19:16:27.363Z,31.92
2018-03-19T19:18:54.935Z,28.92
2018-03-19T19:21:22.540Z,27.73
2018-03-19T19:23:50.076Z,37.80
2018-03-19T19:26:17.620Z,23.50
2018-03-19T19:28:45.394Z,29.02
2018-03-19T19:31:13.730Z,29.60
2018-03-19T19:33:41.268Z,34.65
2018-03-19T19:36:08.821Z,26.37
2018-03-19T19:38:37.121Z,27.58
2018-03-19T19:41:04.639Z,31.67
2018-03-19T19:43:32.188Z,31.92
2018-03-19T19:45:59.745Z,30.60
2018-03-19T19:48:27.287Z,50.45
2018-03-19T19:50:54.815Z,51.08
2018-03-19T19:53:23.123Z,54.00
2018-03-19T19:55:50.860Z,45.97
2018-03-19T19:58:18.389Z,33.10
2018-03-19T20:00:46.647Z,30.60
2018-03-19T20:03:14.200Z,28.75
2018-03-19T20:05:41.740Z,27.73
2018-03-19T20:08:09.306Z,29.48
2018-03-19T20:10:37.024Z,36.20
2018-03-19T20:13:04.558Z,31.65
2018-03-19T20:15:32.839Z,29.80
2018-03-19T20:18:01.125Z,29.55
2018-03-19T20:20:28.709Z,28.73
2018-03-19T20:22:56.231Z,34.05
2018-03-19T20:25:24.547Z,29.95
2018-03-19T20:27:52.097Z,29.10
2018-03-19T20:30:19.630Z,31.50
2018-03-19T20:32:48.049Z,32.03
2018-03-19T20:35:15.568Z,30.95
2018-03-19T20:37:43.899Z,31.67
2018-03-19T20:40:11.460Z,30.95
2018-03-19T20:42:39.020Z,31.98
2018-03-19T20:45:06.580Z,35.67
2018-03-19T20:47:34.106Z,31.02
2018-03-19T20:50:01.616Z,29.37
2018-03-19T20:52:29.175Z,29.58
2018-03-19T20:54:56.687Z,29.70
2018-03-19T20:57:24.211Z,27.52
2018-03-19T20:59:52.504Z,34.47
2018-03-19T21:02:20.059Z,29.98
2018-03-19T21:04:47.647Z,27.55
2018-03-19T21:07:15.201Z,27.75
2018-03-19T21:09:42.761Z,29.25
2018-03-19T21:12:11.038Z,22.67
2018-03-19T21:14:38.630Z,24.67
2018-03-19T21:17:06.172Z,21.65
2018-03-19T21:19:33.704Z,24.63
2018-03-19T21:22:01.237Z,25.48
2018-03-19T21:24:29.538Z,25.10
2018-03-19T21:26:57.070Z,25.08
2018-03-19T21:29:25.378Z,31.33
2018-03-19T21:31:52.894Z,26.83
2018-03-19T21:34:20.407Z,27.20
2018-03-19T21:36:48.702Z,26.83
2018-03-19T21:39:16.225Z,29.63
2018-03-19T21:41:43.760Z,27.33
2018-03-19T21:44:12.027Z,27.27
2018-03-19T21:46:39.573Z,30.37
2018-03-19T21:49:07.108Z,26.20
2018-03-19T21:51:34.620Z,26.65
2018-03-19T21:54:02.911Z,25.58
2018-03-19T21:56:30.449Z,28.83
2018-03-19T21:58:58.749Z,22.92
2018-03-19T22:01:26.282Z,25.55
2018-03-19T22:03:54.578Z,24.33
2018-03-19T22:06:22.095Z,30.58
2018-03-19T22:08:49.647Z,28.08
2018-03-19T22:11:17.166Z,26.85
2018-03-19T22:13:44.704Z,27.35
2018-03-19T22:16:12.996Z,23.20
2018-03-19T22:18:40.527Z,27.37
2018-03-19T22:21:08.839Z,25.67
2018-03-19T22:23:36.339Z,24.02
2018-03-19T22:26:03.987Z,32.00
2018-03-19T22:28:31.492Z,27.80
2018-03-19T22:30:59.817Z,25.98
2018-03-19T22:33:27.327Z,25.33
2018-03-19T22:35:55.614Z,36.42
2018-03-19T22:38:23.167Z,28.75
2018-03-19T22:40:51.452Z,29.95
2018-03-19T22:43:18.979Z,32.50
2018-03-19T22:45:46.507Z,40.83
2018-03-19T22:48:14.072Z,31.45
2018-03-19T22:50:41.596Z,29.55
2018-03-19T22:53:09.120Z,25.45
2018-03-19T22:55:37.399Z,30.10
2018-03-19T22:58:05.686Z,29.98
2018-03-19T23:00:33.963Z,32.47
2018-03-19T23:03:02.289Z,27.55
2018-03-19T23:05:29.833Z,31.42
2018-03-19T23:07:57.346Z,32.13
2018-03-19T23:10:25.640Z,27.80
2018-03-19T23:12:53.160Z,27.27
2018-03-19T23:15:20.654Z,27.73
2018-03-19T23:17:48.175Z,30.05
2018-03-19T23:20:15.667Z,25.85
2018-03-19T23:22:43.969Z,32.72
2018-03-19T23:25:11.496Z,30.40
2018-03-19T23:27:39.802Z,29.12
2018-03-19T23:30:07.306Z,28.23
2018-03-19T23:32:34.830Z,29.25
2018-03-19T23:35:02.356Z,24.90
2018-03-19T23:37:30.643Z,25.02
2018-03-19T23:39:58.141Z,27.50
2018-03-19T23:42:25.656Z,31.80
2018-03-19T23:44:53.179Z,26.98
2018-03-19T23:47:20.719Z,31.15
2018-03-19T23:49:48.319Z,30.95
2018-03-19T23:52:15.779Z,32.30
2018-03-19T23:54:44.103Z,32.72
2018-03-19T23:57:11.596Z,32.38
2018-03-19T23:59:39.135Z,28.95
